Time;durP1;ratioP1;P1;durP2;ratioP2;P2;SDS_P1;SDS_P2;PMS_P1;PMS_P2;Temp;Humidity;BMP_temperature;BMP_pressure;BME280_temperature;BME280_humidity;BME280_pressure;Samples;Min_cycle;Max_cycle;Signal;HPM_P1;HPM_P2
2022/09/08 00:00:08;;;;;;;7.40;4.47;;;16.10;99.90;;;;;;5094929;27;20134;-48
2022/09/08 00:02:37;;;;;;;9.63;5.30;;;16.20;99.90;;;;;;5095679;28;20412;-50
2022/09/08 00:05:05;;;;;;;9.25;5.68;;;16.10;99.90;;;;;;5095792;28;20052;-48
2022/09/08 00:07:32;;;;;;;13.15;6.03;;;16.10;99.90;;;;;;5095896;27;20058;-49
2022/09/08 00:09:59;;;;;;;7.55;5.97;;;16.10;99.90;;;;;;5095378;27;20074;-45
2022/09/08 00:12:25;;;;;;;9.65;6.35;;;16.00;99.90;;;;;;5094206;28;20076;-47
2022/09/08 00:14:51;;;;;;;8.98;5.88;;;18.00;99.90;;;;;;5093380;27;20135;-48
2022/09/08 00:17:18;;;;;;;11.27;7.32;;;16.30;99.90;;;;;;5095771;28;20082;-49
2022/09/08 00:19:44;;;;;;;11.90;7.38;;;16.10;99.90;;;;;;5093143;28;20047;-47
2022/09/08 00:22:10;;;;;;;9.48;6.72;;;16.10;99.90;;;;;;5093684;28;20028;-49
2022/09/08 00:24:36;;;;;;;11.40;7.70;;;16.10;99.90;;;;;;5093786;28;20036;-49
2022/09/08 00:27:02;;;;;;;11.75;7.72;;;16.10;99.90;;;;;;5094711;27;20142;-50
2022/09/08 00:29:27;;;;;;;12.13;7.30;;;16.10;99.90;;;;;;5094031;27;20126;-49
2022/09/08 00:31:53;;;;;;;10.20;7.97;;;16.10;99.90;;;;;;5092892;27;20096;-49
2022/09/08 00:34:19;;;;;;;11.40;8.45;;;16.10;99.90;;;;;;5093684;28;20039;-47
2022/09/08 00:36:45;;;;;;;13.15;8.68;;;16.00;99.90;;;;;;5094479;28;20039;-48
2022/09/08 00:39:11;;;;;;;12.45;8.77;;;16.00;99.90;;;;;;5093330;28;20036;-47
2022/09/08 00:41:37;;;;;;;11.27;9.52;;;15.80;99.90;;;;;;5093733;28;20059;-45
2022/09/08 00:44:34;;;;;;;13.23;9.18;;;16.10;99.90;;;;;;5094263;28;20043;-46
2022/09/08 00:47:00;;;;;;;11.45;9.57;;;16.10;99.90;;;;;;5095093;27;20044;-51
2022/09/08 00:49:28;;;;;;;13.13;10.73;;;15.90;99.90;;;;;;5093199;28;20130;-50
2022/09/08 00:51:57;;;;;;;14.68;10.73;;;16.30;99.90;;;;;;5093961;28;20389;-50
2022/09/08 00:54:24;;;;;;;18.67;11.65;;;16.00;99.90;;;;;;5092504;28;20071;-47
2022/09/08 00:56:51;;;;;;;18.38;13.40;;;16.10;99.90;;;;;;5093768;28;20047;-47
2022/09/08 00:59:20;;;;;;;20.98;13.88;;;16.00;99.90;;;;;;5094101;27;20183;-48
2022/09/08 01:01:46;;;;;;;16.23;14.52;;;16.10;99.90;;;;;;5095203;27;20039;-48
2022/09/08 01:04:12;;;;;;;18.85;14.93;;;16.00;99.90;;;;;;5093895;28;20043;-49
2022/09/08 01:12:45;;;;;;;20.48;14.95;;;15.90;99.90;;;;;;5095177;28;20511;-51
2022/09/08 01:15:18;;;;;;;18.77;16.85;;;16.10;99.90;;;;;;5093923;28;20073;-48
2022/09/08 01:17:48;;;;;;;20.75;18.55;;;16.00;99.90;;;;;;5077539;28;20040;-48
2022/09/08 01:20:17;;;;;;;21.63;17.95;;;16.00;99.90;;;;;;5094256;28;20078;-44
2022/09/08 01:22:57;;;;;;;26.73;20.20;;;16.10;99.90;;;;;;5094646;28;20403;-46
2022/09/08 01:26:06;;;;;;;23.13;19.00;;;16.30;99.90;;;;;;5093385;28;20054;-49
2022/09/08 01:28:38;;;;;;;22.50;20.10;;;16.10;99.90;;;;;;5093587;28;20128;-50
2022/09/08 01:31:04;;;;;;;;;;;16.10;99.90;;;;;;5094014;28;20044;-47
2022/09/08 01:33:31;;;;;;;24.70;20.73;;;16.20;99.90;;;;;;5094302;28;19920;-49
2022/09/08 01:35:57;;;;;;;24.98;22.25;;;16.10;99.90;;;;;;5094153;28;20052;-48
2022/09/08 01:38:22;;;;;;;25.02;22.25;;;16.10;99.90;;;;;;5093347;28;20047;-50
2022/09/08 01:40:48;;;;;;;27.30;23.75;;;16.30;99.90;;;;;;5094044;28;20132;-48
2022/09/08 01:43:14;;;;;;;24.80;22.17;;;16.00;99.90;;;;;;5094146;28;20067;-50
2022/09/08 01:45:40;;;;;;;26.35;22.70;;;16.20;99.90;;;;;;5093737;27;20039;-49
2022/09/08 01:48:07;;;;;;;27.88;24.80;;;16.10;99.90;;;;;;5094140;28;20721;-47
2022/09/08 01:50:33;;;;;;;27.67;24.60;;;16.10;99.90;;;;;;5093170;28;20511;-45
2022/09/08 01:52:59;;;;;;;28.95;25.85;;;16.30;99.90;;;;;;5092525;28;22031;-50
2022/09/08 01:55:25;;;;;;;28.67;25.83;;;16.20;99.90;;;;;;5093751;28;20047;-45
2022/09/08 01:57:51;;;;;;;30.67;25.98;;;16.10;99.90;;;;;;5093036;28;20043;-49
2022/09/08 02:00:17;;;;;;;28.63;25.63;;;16.30;99.90;;;;;;5092618;28;20044;-49
2022/09/08 02:02:42;;;;;;;30.00;26.02;;;16.20;99.90;;;;;;5093575;28;20039;-50
2022/09/08 02:05:08;;;;;;;29.30;26.30;;;17.40;99.90;;;;;;5093381;28;20063;-47
2022/09/08 02:07:37;;;;;;;29.45;26.48;;;16.30;99.90;;;;;;5095968;27;20031;-47
2022/09/08 02:10:04;;;;;;;31.95;28.70;;;16.20;99.90;;;;;;5096333;27;20047;-49
2022/09/08 02:12:31;;;;;;;33.58;28.33;;;16.20;99.90;;;;;;5095109;27;20101;-49
2022/09/08 02:14:56;;;;;;;32.70;28.85;;;16.50;99.90;;;;;;5097648;27;20468;-50
2022/09/08 02:17:22;;;;;;;31.00;27.67;;;16.60;99.90;;;;;;5097496;27;20047;-47
2022/09/08 02:19:48;;;;;;;33.22;29.77;;;16.40;99.90;;;;;;5096711;27;20699;-47
2022/09/08 02:22:14;;;;;;;33.03;29.52;;;16.70;99.90;;;;;;5096810;27;20100;-50
2022/09/08 02:24:41;;;;;;;34.88;30.02;;;16.50;99.90;;;;;;5096678;27;20381;-47
2022/09/08 02:27:08;;;;;;;32.95;29.40;;;16.80;99.90;;;;;;5097608;27;20037;-46
2022/09/08 02:29:33;;;;;;;33.60;30.10;;;16.50;99.90;;;;;;5096733;27;20039;-49
2022/09/08 02:31:59;;;;;;;36.80;30.67;;;16.60;99.90;;;;;;5097559;27;20485;-50
2022/09/08 02:34:25;;;;;;;33.00;29.50;;;16.50;99.90;;;;;;5097696;27;20043;-47
2022/09/08 02:36:51;;;;;;;32.50;29.02;;;16.70;99.90;;;;;;5094787;28;20043;-47
2022/09/08 02:39:19;;;;;;;33.58;30.13;;;16.60;99.90;;;;;;5096437;28;20481;-49
2022/09/08 02:41:45;;;;;;;35.17;31.60;;;16.50;99.90;;;;;;5096061;27;20196;-47
2022/09/08 02:44:12;;;;;;;38.97;32.75;;;16.70;99.90;;;;;;5096557;27;20088;-45
2022/09/08 02:46:38;;;;;;;35.60;30.95;;;16.80;99.90;;;;;;5097877;27;20058;-49
2022/09/08 02:49:05;;;;;;;33.72;30.25;;;16.70;99.90;;;;;;5096666;27;20031;-49
2022/09/08 02:51:32;;;;;;;35.50;31.75;;;16.70;99.90;;;;;;5096150;27;20459;-46
2022/09/08 02:53:58;;;;;;;32.95;29.58;;;16.70;99.90;;;;;;5096295;27;20106;-50
2022/09/08 02:56:25;;;;;;;38.95;33.47;;;16.80;99.90;;;;;;5095995;27;20040;-50
2022/09/08 02:58:51;;;;;;;36.47;32.60;;;16.90;99.90;;;;;;5096714;27;20047;-50
2022/09/08 03:01:17;;;;;;;35.63;31.92;;;16.80;99.90;;;;;;5095683;27;20040;-46
2022/09/08 03:03:43;;;;;;;36.30;32.55;;;16.90;99.90;;;;;;5095720;27;20527;-47
2022/09/08 03:06:09;;;;;;;37.38;33.38;;;16.90;99.90;;;;;;5095739;27;20350;-49
2022/09/08 03:08:35;;;;;;;36.15;32.22;;;16.70;99.90;;;;;;5093138;27;20671;-48
2022/09/08 03:11:01;;;;;;;40.58;35.33;;;16.70;99.90;;;;;;5095188;27;20043;-49
2022/09/08 03:13:28;;;;;;;34.58;31.08;;;16.80;99.90;;;;;;5094680;27;20070;-46
2022/09/08 03:15:54;;;;;;;36.38;32.42;;;16.80;99.90;;;;;;5095341;27;20102;-49
2022/09/08 03:18:19;;;;;;;36.85;33.00;;;16.80;99.90;;;;;;5094324;28;20044;-47
2022/09/08 03:20:46;;;;;;;39.55;34.63;;;16.70;99.90;;;;;;5093566;27;20047;-47
2022/09/08 03:23:18;;;;;;;36.72;33.03;;;16.70;99.90;;;;;;5095430;27;20059;-49
2022/09/08 03:25:46;;;;;;;36.75;32.97;;;16.60;99.90;;;;;;5094925;27;20606;-48
2022/09/08 03:28:18;;;;;;;38.40;33.70;;;16.60;99.90;;;;;;5095795;27;20814;-47
2022/09/08 03:30:44;;;;;;;39.25;33.25;;;16.60;99.90;;;;;;5094692;27;20039;-46
2022/09/08 03:33:10;;;;;;;39.20;34.95;;;16.60;99.90;;;;;;5094270;28;20046;-45
2022/09/08 03:35:36;;;;;;;37.88;33.95;;;16.40;99.90;;;;;;5095274;28;20060;-47
2022/09/08 03:38:02;;;;;;;35.85;32.15;;;16.70;99.90;;;;;;5095478;27;20044;-46
2022/09/08 03:40:28;;;;;;;40.10;33.20;;;16.70;99.90;;;;;;5095436;27;20286;-48
2022/09/08 03:42:54;;;;;;;38.67;34.78;;;16.80;99.90;;;;;;5095437;27;20122;-50
2022/09/08 03:45:20;;;;;;;40.70;36.08;;;16.60;99.90;;;;;;5096054;27;20075;-50
2022/09/08 03:47:47;;;;;;;39.00;34.97;;;16.50;99.90;;;;;;5096461;27;20463;-47
2022/09/08 03:50:15;;;;;;;39.13;35.15;;;16.50;99.90;;;;;;5095323;27;20067;-48
2022/09/08 03:52:42;;;;;;;38.90;34.90;;;16.70;99.90;;;;;;5077050;28;20040;-49
2022/09/08 03:55:10;;;;;;;41.25;37.03;;;16.80;99.90;;;;;;5094996;27;20037;-47
2022/09/08 03:57:37;;;;;;;41.80;37.20;;;16.80;99.90;;;;;;5094773;27;20126;-48
2022/09/08 04:00:06;;;;;;;42.15;37.65;;;16.70;99.90;;;;;;5096028;27;20051;-48
2022/09/08 04:02:32;;;;;;;41.75;35.83;;;16.70;99.90;;;;;;5095852;27;20047;-47
2022/09/08 04:04:58;;;;;;;44.78;40.00;;;16.70;99.90;;;;;;5094378;28;20049;-46
2022/09/08 04:07:29;;;;;;;37.55;33.67;;;16.80;99.90;;;;;;5095060;27;20546;-48
2022/09/08 04:09:56;;;;;;;43.40;38.77;;;16.90;99.90;;;;;;5094163;28;20039;-48
2022/09/08 04:12:24;;;;;;;41.20;36.70;;;16.70;99.90;;;;;;5093888;28;20036;-47
2022/09/08 04:14:50;;;;;;;44.42;39.53;;;16.60;99.90;;;;;;5094303;28;20066;-45
2022/09/08 04:17:16;;;;;;;42.53;38.17;;;16.70;99.90;;;;;;5095334;28;20404;-49
2022/09/08 04:19:42;;;;;;;42.88;38.35;;;16.70;99.90;;;;;;5094580;27;20166;-49
2022/09/08 04:22:08;;;;;;;43.28;38.92;;;16.70;99.90;;;;;;5094283;28;20122;-48
2022/09/08 04:24:34;;;;;;;44.70;39.45;;;16.60;99.90;;;;;;5127329;27;20042;-47
2022/09/08 04:27:00;;;;;;;44.78;39.70;;;16.80;99.90;;;;;;5095034;28;20463;-48
2022/09/08 04:29:26;;;;;;;45.92;41.08;;;16.70;99.90;;;;;;5093150;27;20476;-48
2022/09/08 04:31:52;;;;;;;46.53;41.50;;;16.60;99.90;;;;;;5093744;28;20346;-45
2022/09/08 04:34:18;;;;;;;46.88;41.78;;;16.60;99.90;;;;;;5094489;27;20040;-47
2022/09/08 04:36:44;;;;;;;47.83;42.58;;;16.70;99.90;;;;;;5094343;28;20339;-49
2022/09/08 04:39:11;;;;;;;43.38;38.50;;;16.80;99.90;;;;;;5094193;27;20480;-47
2022/09/08 04:41:38;;;;;;;44.17;39.58;;;16.70;99.90;;;;;;5092591;27;20044;-46
2022/09/08 04:44:04;;;;;;;42.70;38.08;;;16.80;99.90;;;;;;5094242;27;20043;-47
2022/09/08 04:46:32;;;;;;;44.80;40.03;;;16.80;99.90;;;;;;5095163;27;20032;-46
2022/09/08 04:48:57;;;;;;;46.78;41.88;;;16.90;99.90;;;;;;5095047;27;20108;-47
2022/09/08 04:51:24;;;;;;;45.53;40.53;;;16.70;99.90;;;;;;5094073;28;20809;-49
2022/09/08 04:53:52;;;;;;;45.65;40.03;;;16.70;99.90;;;;;;5094149;27;20044;-47
2022/09/08 04:56:19;;;;;;;42.47;38.05;;;16.80;99.90;;;;;;5094262;28;20047;-48
2022/09/08 04:58:46;;;;;;;42.33;37.78;;;16.50;99.90;;;;;;5095008;27;20107;-46
2022/09/08 05:01:20;;;;;;;42.45;37.75;;;16.70;99.90;;;;;;5093893;28;20050;-47
2022/09/08 05:03:51;;;;;;;47.08;41.95;;;16.60;99.90;;;;;;5093976;28;20047;-48
2022/09/08 05:06:17;;;;;;;45.33;40.55;;;16.60;99.90;;;;;;5093311;28;20567;-49
2022/09/08 05:08:51;;;;;;;47.17;42.25;;;17.40;99.90;;;;;;5094531;28;20043;-49
2022/09/08 05:11:19;;;;;;;49.05;42.88;;;16.80;99.90;;;;;;5094528;28;20180;-46
2022/09/08 05:13:46;;;;;;;44.85;39.90;;;16.70;99.90;;;;;;5093304;27;20052;-49
2022/09/08 05:16:14;;;;;;;44.35;39.63;;;16.60;99.90;;;;;;5093698;27;20039;-47
2022/09/08 05:18:41;;;;;;;46.53;40.72;;;16.60;99.90;;;;;;5093131;28;20114;-45
2022/09/08 05:21:08;;;;;;;45.22;40.35;;;16.50;99.90;;;;;;5093190;28;20404;-46
2022/09/08 05:23:34;;;;;;;46.50;40.35;;;16.50;99.90;;;;;;5093679;28;20039;-45
2022/09/08 05:26:02;;;;;;;44.38;39.88;;;16.70;99.90;;;;;;5092824;28;20043;-47
2022/09/08 05:28:31;;;;;;;45.63;40.17;;;16.60;99.90;;;;;;5093767;28;20062;-46
2022/09/08 05:31:00;;;;;;;49.40;42.08;;;16.50;99.90;;;;;;5092670;28;20466;-46
2022/09/08 05:33:25;;;;;;;48.83;42.42;;;16.70;99.90;;;;;;5092959;28;20089;-46
2022/09/08 05:35:51;;;;;;;49.95;41.63;;;16.50;99.90;;;;;;5093761;28;20056;-49
2022/09/08 05:38:17;;;;;;;47.17;41.85;;;16.70;99.90;;;;;;5092707;28;20662;-48
2022/09/08 05:40:43;;;;;;;49.45;44.15;;;16.80;99.90;;;;;;5092613;28;20043;-47
2022/09/08 05:43:09;;;;;;;50.08;44.45;;;16.70;99.90;;;;;;5096039;27;20035;-49
2022/09/08 05:45:35;;;;;;;51.10;44.28;;;16.50;99.90;;;;;;5097642;27;20040;-49
2022/09/08 05:48:01;;;;;;;53.97;44.17;;;16.60;99.90;;;;;;5098824;27;20529;-49
2022/09/08 05:50:26;;;;;;;50.53;44.97;;;16.70;99.90;;;;;;5094961;27;20054;-51
2022/09/08 05:52:52;;;;;;;50.95;45.58;;;16.80;99.90;;;;;;5095538;27;20059;-46
2022/09/08 05:55:18;;;;;;;49.22;43.42;;;16.70;99.90;;;;;;5097431;27;20153;-50
2022/09/08 05:57:44;;;;;;;51.00;43.78;;;16.80;99.90;;;;;;5097942;27;20075;-49
2022/09/08 06:00:11;;;;;;;49.67;42.47;;;16.70;99.90;;;;;;5097758;27;20036;-45
2022/09/08 06:02:37;;;;;;;51.50;44.10;;;16.50;99.90;;;;;;5097235;27;20442;-46
2022/09/08 06:05:03;;;;;;;49.15;44.05;;;16.80;99.90;;;;;;5097686;27;20050;-49
2022/09/08 06:07:31;;;;;;;47.50;42.35;;;16.80;99.90;;;;;;5098017;28;20048;-48
2022/09/08 06:09:57;;;;;;;50.60;44.08;;;16.80;99.90;;;;;;5097528;27;20041;-49
2022/09/08 06:12:23;;;;;;;49.80;43.38;;;16.80;99.90;;;;;;5097476;27;20453;-49
2022/09/08 06:14:49;;;;;;;49.47;44.13;;;16.80;99.90;;;;;;5098124;27;20055;-50
2022/09/08 06:17:14;;;;;;;51.03;45.47;;;16.80;99.90;;;;;;5097988;27;20338;-48
2022/09/08 06:19:40;;;;;;;39.80;35.42;;;16.80;99.90;;;;;;5099393;27;20070;-51
2022/09/08 06:22:06;;;;;;;46.72;41.10;;;16.80;99.90;;;;;;5097235;27;20051;-46
2022/09/08 06:24:31;;;;;;;51.00;45.40;;;16.70;99.90;;;;;;5097129;27;20511;-46
2022/09/08 06:27:00;;;;;;;53.90;46.78;;;16.60;99.90;;;;;;5097640;27;20054;-46
2022/09/08 06:29:32;;;;;;;50.58;45.13;;;16.60;99.90;;;;;;5096929;27;20051;-44
2022/09/08 06:31:59;;;;;;;54.60;48.67;;;16.60;99.90;;;;;;5096612;27;20599;-47
2022/09/08 06:34:29;;;;;;;51.20;43.65;;;16.60;99.90;;;;;;5094880;27;20071;-48
2022/09/08 06:37:00;;;;;;;55.60;46.45;;;16.70;99.90;;;;;;5094704;27;20046;-47
2022/09/08 06:39:32;;;;;;;54.45;45.67;;;16.60;99.90;;;;;;5096355;27;20055;-45
2022/09/08 06:42:33;;;;;;;66.60;51.33;;;16.60;99.90;;;;;;5096982;27;20075;-47
2022/09/08 06:45:04;;;;;;;63.55;51.10;;;16.60;99.90;;;;;;5096434;27;20039;-46
2022/09/08 06:48:04;;;;;;;58.67;50.25;;;16.70;99.90;;;;;;5096759;27;20457;-45
2022/09/08 06:50:33;;;;;;;80.32;57.55;;;16.60;99.90;;;;;;5129061;27;20047;-45
2022/09/08 06:53:05;;;;;;;74.47;54.42;;;16.40;99.90;;;;;;5097054;27;20052;-48
2022/09/08 06:55:44;;;;;;;;;;;16.60;99.90;;;;;;5097272;27;20130;-45
2022/09/08 06:58:29;;;;;;;68.70;51.78;;;16.60;99.90;;;;;;5096235;27;20304;-45
2022/09/08 07:01:17;;;;;;;67.80;53.88;;;16.50;99.90;;;;;;5096320;27;20050;-46
2022/09/08 07:03:46;;;;;;;70.55;51.72;;;16.40;99.90;;;;;;5096205;27;20594;-53
2022/09/08 07:06:16;;;;;;;72.45;53.00;;;16.60;99.90;;;;;;5096058;27;20500;-48
2022/09/08 07:09:06;;;;;;;84.93;56.58;;;16.50;99.90;;;;;;5096229;27;20069;-47
2022/09/08 07:11:56;;;;;;;69.85;53.97;;;16.60;99.90;;;;;;5096074;28;20634;-48
2022/09/08 07:14:45;;;;;;;61.60;50.88;;;16.40;99.90;;;;;;5096380;28;20153;-47
2022/09/08 07:17:35;;;;;;;75.25;53.38;;;16.20;99.90;;;;;;5097281;27;20122;-46
2022/09/08 07:20:03;;;;;;;61.70;49.33;;;16.40;99.90;;;;;;5097454;27;20071;-48
2022/09/08 07:22:50;;;;;;;58.08;47.20;;;16.30;99.90;;;;;;5096261;27;20123;-48
2022/09/08 07:25:18;;;;;;;67.57;52.22;;;16.40;99.90;;;;;;5095566;27;20042;-48
2022/09/08 07:27:47;;;;;;;63.05;51.47;;;16.30;99.90;;;;;;5095524;27;20795;-45
2022/09/08 07:30:18;;;;;;;58.40;46.67;;;16.30;99.90;;;;;;5095507;27;20048;-47
2022/09/08 07:32:51;;;;;;;63.53;49.97;;;16.30;99.90;;;;;;5095356;27;20040;-49
2022/09/08 07:35:23;;;;;;;56.10;46.28;;;16.40;99.90;;;;;;5095612;27;20048;-49
2022/09/08 07:37:53;;;;;;;57.92;46.70;;;16.20;99.90;;;;;;5095662;27;20051;-48
2022/09/08 07:40:41;;;;;;;57.55;44.55;;;16.40;99.90;;;;;;5094926;27;20075;-49
2022/09/08 07:43:12;;;;;;;61.90;46.63;;;16.50;99.90;;;;;;5095234;27;20043;-47
2022/09/08 07:46:05;;;;;;;61.47;46.20;;;16.20;99.90;;;;;;5095645;27;20039;-45
2022/09/08 07:48:53;;;;;;;67.18;49.75;;;16.40;99.90;;;;;;5096486;27;21051;-50
2022/09/08 07:51:19;;;;;;;57.17;45.80;;;16.30;99.90;;;;;;5094904;27;20066;-46
2022/09/08 07:53:52;;;;;;;58.38;48.22;;;16.40;99.90;;;;;;5094486;28;21120;-51
2022/09/08 07:56:32;;;;;;;68.85;47.55;;;16.40;99.90;;;;;;5094788;27;20066;-50
2022/09/08 07:59:25;;;;;;;58.28;43.17;;;16.40;99.90;;;;;;5095459;28;20058;-48
2022/09/08 08:02:18;;;;;;;57.90;44.30;;;16.40;99.90;;;;;;5094252;28;20065;-49
2022/09/08 08:05:05;;;;;;;56.45;42.03;;;16.50;99.90;;;;;;5094223;28;20043;-50
2022/09/08 08:07:54;;;;;;;55.40;42.60;;;16.30;99.90;;;;;;5095216;28;22013;-47
2022/09/08 08:10:27;;;;;;;57.08;43.00;;;16.50;99.90;;;;;;5094528;28;20052;-46
2022/09/08 08:13:28;;;;;;;54.35;41.83;;;16.30;99.90;;;;;;5094278;28;20051;-45
2022/09/08 08:16:13;;;;;;;40.28;32.70;;;14.30;99.90;;;;;;5095818;27;20187;-49
2022/09/08 08:19:10;;;;;;;20.83;18.58;;;16.30;99.90;;;;;;5095496;27;20043;-48
2022/09/08 08:21:46;;;;;;;12.82;8.77;;;16.20;99.90;;;;;;5095154;28;20036;-49
2022/09/08 08:24:24;;;;;;;8.90;6.60;;;16.20;99.90;;;;;;5093794;27;20047;-51
2022/09/08 08:27:13;;;;;;;7.95;3.58;;;16.10;99.90;;;;;;5094365;27;20290;-50
2022/09/08 08:29:45;;;;;;;8.60;5.22;;;15.90;99.90;;;;;;5088424;28;20047;-47
2022/09/08 08:32:26;;;;;;;6.40;4.97;;;15.80;99.90;;;;;;5095534;27;20414;-47
2022/09/08 08:35:15;;;;;;;8.52;6.20;;;15.70;99.90;;;;;;5095050;27;20474;-49
2022/09/08 08:37:43;;;;;;;14.35;11.60;;;15.80;99.90;;;;;;5094235;27;20051;-45
2022/09/08 08:40:35;;;;;;;15.52;12.73;;;15.60;99.90;;;;;;5094055;28;20051;-48
2022/09/08 08:43:13;;;;;;;15.40;12.93;;;15.70;99.90;;;;;;5083696;28;20054;-46
2022/09/08 08:46:16;;;;;;;17.77;14.77;;;15.80;99.90;;;;;;5095179;27;20358;-46
2022/09/08 08:49:09;;;;;;;21.27;15.88;;;15.60;99.90;;;;;;5095082;28;20051;-47
2022/09/08 08:52:01;;;;;;;30.70;24.92;;;15.60;99.90;;;;;;5095594;27;20079;-48
2022/09/08 08:54:32;;;;;;;36.97;28.50;;;15.80;99.90;;;;;;5094804;28;20047;-45
2022/09/08 08:57:30;;;;;;;40.13;32.92;;;15.90;99.90;;;;;;5094296;28;20044;-46
2022/09/08 09:00:06;;;;;;;28.05;23.85;;;16.10;99.90;;;;;;5093920;27;20043;-51
2022/09/08 09:02:53;;;;;;;21.13;16.85;;;16.30;99.90;;;;;;5093661;27;20743;-51
2022/09/08 09:05:47;;;;;;;23.40;20.15;;;16.30;99.90;;;;;;5093879;27;20040;-46
2022/09/08 09:08:44;;;;;;;23.20;20.70;;;16.30;99.90;;;;;;5094750;27;20074;-47
2022/09/08 09:11:19;;;;;;;27.27;24.33;;;16.30;99.90;;;;;;5094681;27;20039;-46
2022/09/08 09:14:12;;;;;;;28.02;25.10;;;16.60;99.90;;;;;;5125971;27;21043;-48
2022/09/08 09:17:09;;;;;;;29.05;25.38;;;16.30;99.90;;;;;;5092943;28;20565;-50
2022/09/08 09:19:54;;;;;;;26.15;23.38;;;16.40;99.90;;;;;;5095109;27;20036;-51
2022/09/08 09:22:35;;;;;;;30.80;27.05;;;16.50;99.90;;;;;;5091899;28;20694;-48
2022/09/08 09:25:09;;;;;;;23.00;20.23;;;16.50;99.90;;;;;;5093896;28;20062;-47
2022/09/08 09:28:06;;;;;;;19.98;15.90;;;16.40;99.90;;;;;;5093191;28;20557;-51
2022/09/08 09:30:43;;;;;;;13.18;11.77;;;16.60;99.90;;;;;;5092384;28;20092;-49
2022/09/08 09:33:30;;;;;;;10.75;9.65;;;16.40;99.90;;;;;;5093453;28;20046;-46
2022/09/08 09:36:20;;;;;;;15.07;8.85;;;16.40;99.90;;;;;;5094985;27;20027;-48
2022/09/08 09:39:08;;;;;;;9.40;7.40;;;16.50;99.90;;;;;;5093574;28;20043;-47
2022/09/08 09:42:12;;;;;;;8.55;6.95;;;16.40;99.90;;;;;;5093365;28;20040;-50
2022/09/08 09:45:16;;;;;;;7.25;5.75;;;16.40;99.90;;;;;;5092060;28;20040;-50
2022/09/08 09:48:27;;;;;;;8.40;5.63;;;16.40;99.90;;;;;;5093874;28;20570;-46
2022/09/08 09:51:19;;;;;;;8.02;5.07;;;16.20;99.90;;;;;;5051952;28;20471;-47
2022/09/08 09:53:44;;;;;;;6.70;5.30;;;16.10;99.90;;;;;;5053354;28;20040;-47
2022/09/08 09:56:28;;;;;;;7.97;6.60;;;16.10;99.90;;;;;;5052258;28;20045;-50
2022/09/08 09:59:03;;;;;;;8.13;6.18;;;16.20;99.90;;;;;;5052680;28;20119;-47
2022/09/08 10:02:21;;;;;;;8.02;6.60;;;16.10;99.90;;;;;;5052830;28;20071;-48
2022/09/08 10:05:32;;;;;;;8.38;7.13;;;16.40;99.90;;;;;;5052819;28;20489;-49
2022/09/08 10:08:22;;;;;;;9.30;6.80;;;16.40;99.90;;;;;;5049108;28;20052;-48
2022/09/08 10:11:06;;;;;;;8.60;6.55;;;16.30;99.90;;;;;;5050944;28;20049;-49
2022/09/08 10:13:35;;;;;;;10.13;8.10;;;16.30;99.90;;;;;;5053096;28;20048;-46
2022/09/08 10:16:29;;;;;;;8.85;6.90;;;16.30;99.90;;;;;;5052225;28;21163;-51
2022/09/08 10:19:35;;;;;;;9.23;6.35;;;16.20;99.90;;;;;;5052840;28;20069;-49
2022/09/08 10:22:04;;;;;;;11.07;7.32;;;16.40;99.90;;;;;;5052465;28;20210;-51
2022/09/08 10:24:51;;;;;;;9.32;6.30;;;16.40;99.90;;;;;;5052647;28;20417;-46
2022/09/08 10:27:32;;;;;;;7.97;5.10;;;16.40;99.90;;;;;;5052823;28;20037;-47
2022/09/08 10:30:15;;;;;;;6.82;5.38;;;16.50;99.90;;;;;;5055256;28;20097;-48
2022/09/08 10:33:04;;;;;;;6.15;3.92;;;16.80;99.90;;;;;;5055896;28;20062;-51
2022/09/08 10:35:45;;;;;;;7.25;4.90;;;16.50;99.90;;;;;;5055724;28;20143;-50
2022/09/08 10:38:48;;;;;;;8.40;5.47;;;16.50;99.90;;;;;;5055436;28;20500;-49
2022/09/08 10:41:48;;;;;;;8.57;4.93;;;16.40;99.90;;;;;;5055243;28;20040;-46
2022/09/08 10:44:49;;;;;;;8.68;6.00;;;16.60;99.90;;;;;;5054893;28;20044;-50
2022/09/08 10:47:34;;;;;;;9.27;6.50;;;16.30;99.90;;;;;;5038582;28;20551;-45
2022/09/08 10:50:07;;;;;;;8.48;6.50;;;16.60;99.90;;;;;;5067240;28;20055;-46
2022/09/08 10:52:43;;;;;;;9.35;6.60;;;16.60;99.90;;;;;;5096836;27;20073;-47
2022/09/08 10:55:46;;;;;;;9.82;7.60;;;16.40;99.90;;;;;;5096131;27;20050;-48
2022/09/08 10:58:36;;;;;;;8.45;5.40;;;16.60;99.90;;;;;;5096293;27;20036;-47
2022/09/08 11:01:40;;;;;;;9.18;6.05;;;16.70;99.90;;;;;;5095874;27;20043;-50
2022/09/08 11:04:17;;;;;;;10.15;5.43;;;16.70;99.90;;;;;;5096794;27;20082;-46
2022/09/08 11:07:20;;;;;;;7.20;4.18;;;16.80;99.90;;;;;;5095654;27;20051;-45
2022/09/08 11:10:05;;;;;;;8.77;3.58;;;16.90;99.90;;;;;;5096739;27;20070;-46
2022/09/08 11:12:53;;;;;;;6.57;3.30;;;16.50;99.90;;;;;;5096919;27;20542;-48
2022/09/08 11:15:33;;;;;;;5.30;3.13;;;16.70;99.90;;;;;;5097029;27;20040;-46
2022/09/08 11:18:22;;;;;;;7.75;3.20;;;16.70;99.90;;;;;;5096810;27;20135;-48
2022/09/08 11:20:53;;;;;;;7.43;3.35;;;16.50;99.90;;;;;;5097261;27;20061;-47
2022/09/08 11:23:31;;;;;;;7.93;3.60;;;16.60;99.90;;;;;;5096570;27;20108;-45
2022/09/08 11:26:14;;;;;;;8.55;3.47;;;16.90;99.90;;;;;;5095768;27;20051;-48
2022/09/08 11:28:49;;;;;;;6.18;2.78;;;16.60;99.90;;;;;;5096787;27;20422;-45
2022/09/08 11:31:39;;;;;;;7.13;2.95;;;16.70;99.90;;;;;;5096069;27;20078;-51
2022/09/08 11:34:38;;;;;;;6.88;3.50;;;16.70;99.90;;;;;;5095487;27;20047;-49
2022/09/08 11:37:18;;;;;;;6.90;3.50;;;16.70;99.90;;;;;;5086274;27;20510;-48
2022/09/08 11:40:16;;;;;;;9.40;3.88;;;16.70;99.90;;;;;;5095695;27;21110;-48
2022/09/08 11:43:13;;;;;;;8.52;3.63;;;16.80;99.90;;;;;;5095657;27;20062;-50
2022/09/08 11:46:03;;;;;;;8.10;4.25;;;16.60;99.90;;;;;;5095475;27;20134;-47
2022/09/08 11:48:39;;;;;;;7.70;3.90;;;16.60;99.90;;;;;;5096477;27;20876;-47
2022/09/08 11:51:23;;;;;;;9.60;4.78;;;16.80;99.90;;;;;;5096284;27;20090;-46
2022/09/08 11:54:14;;;;;;;6.47;4.15;;;16.70;99.90;;;;;;5095254;27;20139;-50
2022/09/08 11:57:08;;;;;;;5.83;3.67;;;16.90;99.90;;;;;;5094905;27;20045;-50
2022/09/08 11:59:52;;;;;;;9.10;4.82;;;16.90;99.90;;;;;;5096153;27;20032;-50
2022/09/08 12:02:17;;;;;;;8.82;5.15;;;16.80;99.90;;;;;;5094720;27;20063;-48
2022/09/08 12:05:17;;;;;;;8.38;5.45;;;16.80;99.90;;;;;;5094697;27;20448;-44
2022/09/08 12:08:02;;;;;;;7.10;5.35;;;16.70;99.90;;;;;;5096844;27;20035;-48
2022/09/08 12:10:42;;;;;;;12.43;5.00;;;16.90;99.90;;;;;;5093543;27;20043;-47
2022/09/08 12:13:33;;;;;;;6.78;4.57;;;16.80;99.90;;;;;;5095049;27;20636;-47
2022/09/08 12:16:07;;;;;;;7.03;4.43;;;16.80;99.90;;;;;;5094816;27;20063;-46
2022/09/08 12:18:59;;;;;;;7.05;4.35;;;16.80;99.90;;;;;;5094584;27;20708;-47
2022/09/08 12:22:00;;;;;;;7.72;5.25;;;16.80;99.90;;;;;;5074926;28;20066;-48
2022/09/08 12:24:50;;;;;;;9.77;5.40;;;16.80;99.90;;;;;;5050675;28;20087;-46
2022/09/08 12:27:54;;;;;;;9.98;5.22;;;17.20;99.90;;;;;;5092985;27;20050;-47
2022/09/08 12:30:34;;;;;;;6.70;4.78;;;16.90;99.90;;;;;;5094667;27;20055;-49
2022/09/08 12:33:31;;;;;;;6.88;4.30;;;17.00;99.90;;;;;;5093843;28;20107;-45
2022/09/08 12:36:17;;;;;;;9.00;4.57;;;16.80;99.90;;;;;;5093976;27;20047;-45
2022/09/08 12:39:03;;;;;;;8.57;5.25;;;16.90;99.90;;;;;;5092773;27;21064;-48
2022/09/08 12:41:47;;;;;;;9.52;4.82;;;16.90;99.90;;;;;;5094331;27;20108;-46
2022/09/08 12:44:31;;;;;;;8.45;6.03;;;16.90;99.90;;;;;;5094741;28;20294;-47
2022/09/08 12:47:16;;;;;;;7.55;5.07;;;17.00;99.90;;;;;;5093424;27;20043;-47
2022/09/08 12:49:49;;;;;;;11.35;6.13;;;17.10;99.90;;;;;;5094290;28;20090;-45
2022/09/08 12:52:41;;;;;;;7.80;6.40;;;17.10;99.90;;;;;;5091931;27;20127;-44
2022/09/08 12:55:32;;;;;;;9.13;6.32;;;17.20;99.90;;;;;;5093367;27;20544;-48
2022/09/08 12:58:01;;;;;;;8.70;5.88;;;17.00;99.90;;;;;;5093321;27;20051;-48
2022/09/08 13:00:53;;;;;;;10.77;6.65;;;17.20;99.90;;;;;;5092924;28;20044;-45
2022/09/08 13:03:40;;;;;;;10.63;6.65;;;18.00;99.90;;;;;;5092953;27;20076;-46
2022/09/08 13:06:39;;;;;;;8.68;5.82;;;17.20;99.90;;;;;;5092415;28;20040;-50
2022/09/08 13:09:31;;;;;;;10.27;6.50;;;17.10;99.90;;;;;;5093586;27;20496;-47
2022/09/08 13:11:58;;;;;;;8.65;6.40;;;17.40;99.90;;;;;;5093424;27;20047;-45
2022/09/08 13:15:06;;;;;;;15.57;6.75;;;17.30;99.90;;;;;;5093537;28;20419;-46
2022/09/08 13:17:49;;;;;;;10.45;6.68;;;17.30;99.90;;;;;;5085363;27;20050;-45
2022/09/08 13:20:30;;;;;;;9.23;7.10;;;17.30;99.90;;;;;;5094164;28;20035;-46
2022/09/08 13:23:11;;;;;;;9.43;7.20;;;17.40;99.90;;;;;;5093428;28;20385;-49